Time;durP1;ratioP1;P1;durP2;ratioP2;P2;SDS_P1;SDS_P2;PMS_P1;PMS_P2;Temp;Humidity;BMP_temperature;BMP_pressure;BME280_temperature;BME280_humidity;BME280_pressure;Samples;Min_cycle;Max_cycle;Signal;HPM_P1;HPM_P2
2022/04/14 00:01:29;;;;;;;47.85;33.47;;;;;;;8.96;100.00;101370.06;4937479;29;20366;-77
2022/04/14 00:03:54;;;;;;;51.85;36.15;;;;;;;8.97;100.00;101379.75;4937098;29;20377;-77
2022/04/14 00:06:20;;;;;;;49.53;35.17;;;;;;;8.74;100.00;101340.31;4937450;29;20034;-77
2022/04/14 00:08:45;;;;;;;50.78;35.22;;;;;;;8.88;100.00;101357.50;4937319;29;20110;-78
2022/04/14 00:11:10;;;;;;;53.10;36.60;;;;;;;8.99;100.00;101375.91;4939100;29;20032;-78
2022/04/14 00:13:36;;;;;;;57.55;38.55;;;;;;;9.03;100.00;101377.22;4936593;29;20043;-76
2022/04/14 00:16:01;;;;;;;53.28;37.58;;;;;;;9.06;100.00;101371.50;4936579;29;20498;-77
2022/04/14 00:18:26;;;;;;;55.50;37.67;;;;;;;9.10;100.00;101367.44;4934427;29;20039;-77
2022/04/14 00:20:52;;;;;;;50.63;38.45;;;;;;;9.12;100.00;101365.44;4935353;29;20451;-77
2022/04/14 00:23:17;;;;;;;56.00;38.80;;;;;;;9.14;100.00;101367.97;4936521;29;20042;-77
2022/04/14 00:25:42;;;;;;;50.28;37.60;;;;;;;9.16;100.00;101371.28;4933904;29;20068;-77
2022/04/14 00:28:08;;;;;;;55.83;39.13;;;;;;;9.11;100.00;101368.31;4919286;29;20035;-77
2022/04/14 00:30:33;;;;;;;54.72;39.58;;;;;;;9.16;100.00;101380.19;4935228;29;20031;-77
2022/04/14 00:32:58;;;;;;;56.10;40.40;;;;;;;9.18;100.00;101382.69;4933631;29;20094;-76
2022/04/14 00:35:24;;;;;;;55.17;39.35;;;;;;;9.19;100.00;101381.69;4936376;29;20039;-77
2022/04/14 00:37:49;;;;;;;64.25;42.75;;;;;;;8.85;100.00;101323.81;4903220;29;20036;-77
2022/04/14 00:40:14;;;;;;;63.80;42.13;;;;;;;9.23;100.00;101383.00;4935046;29;20118;-77
2022/04/14 00:42:40;;;;;;;78.63;45.28;;;;;;;9.22;100.00;101381.34;4935478;29;20023;-77
2022/04/14 00:45:06;;;;;;;72.72;45.63;;;;;;;9.23;100.00;101377.63;4931242;29;20458;-77
2022/04/14 00:47:34;;;;;;;86.00;47.00;;;;;;;9.26;100.00;101379.13;4935754;29;20031;-78
2022/04/14 00:49:59;;;;;;;102.88;53.03;;;;;;;9.27;100.00;101381.66;4935325;29;20059;-77
2022/04/14 00:52:25;;;;;;;100.07;54.03;;;;;;;9.20;100.00;101361.88;4935955;29;20038;-77
2022/04/14 00:54:52;;;;;;;108.97;52.13;;;;;;;9.22;100.00;101369.75;4933864;29;20042;-77
2022/04/14 00:57:18;;;;;;;110.97;53.78;;;;;;;9.21;100.00;101368.94;4935080;29;20051;-77
2022/04/14 00:59:43;;;;;;;121.35;56.45;;;;;;;9.18;100.00;101369.28;4934390;29;20028;-77
2022/04/14 01:02:09;;;;;;;124.00;58.97;;;;;;;9.15;100.00;101362.41;4916582;29;20382;-77
2022/04/14 01:04:35;;;;;;;125.38;58.58;;;;;;;9.14;100.00;101367.97;4935899;29;20375;-77
2022/04/14 01:07:01;;;;;;;119.63;57.58;;;;;;;9.14;100.00;101367.97;4935953;29;20106;-77
2022/04/14 01:09:28;;;;;;;127.10;57.30;;;;;;;9.12;100.00;101367.28;4918652;29;20074;-78
2022/04/14 01:11:55;;;;;;;156.02;62.08;;;;;;;9.10;100.00;101369.31;4935248;29;20417;-77
2022/04/14 01:14:39;;;;;;;167.60;64.05;;;;;;;9.06;100.00;101365.31;4934413;29;20032;-77
2022/04/14 01:17:08;;;;;;;167.87;65.00;;;;;;;8.74;100.00;101318.84;4934766;29;20347;-78
2022/04/14 01:19:34;;;;;;;206.90;69.55;;;;;;;8.98;100.00;101360.81;4935937;29;20035;-77
2022/04/14 01:22:25;;;;;;;191.52;67.57;;;;;;;8.97;100.00;101360.97;4935488;29;20028;-77
2022/04/14 01:24:56;;;;;;;258.48;72.82;;;;;;;8.92;100.00;101359.66;4937823;29;20020;-77
2022/04/14 01:27:22;;;;;;;299.05;76.00;;;;;;;8.89;100.00;101365.38;4934620;29;20406;-78
2022/04/14 01:29:51;;;;;;;245.50;68.57;;;;;;;8.88;100.00;101360.19;4918166;29;20035;-78
2022/04/14 01:32:17;;;;;;;298.17;72.18;;;;;;;8.82;100.00;101348.31;4915960;29;20489;-77
2022/04/14 01:34:42;;;;;;;387.75;76.97;;;;;;;8.86;100.00;101360.34;4916789;29;20032;-77
2022/04/14 01:37:07;;;;;;;257.33;70.90;;;;;;;8.81;100.00;101360.06;4905785;29;20054;-77
2022/04/14 01:39:34;;;;;;;351.38;78.75;;;;;;;8.79;100.00;101364.75;4935236;29;20055;-77
2022/04/14 01:41:59;;;;;;;528.67;80.78;;;;;;;8.68;100.00;101338.31;4934636;29;20141;-77
2022/04/14 01:44:24;;;;;;;533.30;73.97;;;;;;;8.75;100.00;101349.19;4933932;29;20450;-77
2022/04/14 01:46:50;;;;;;;450.48;74.85;;;;;;;8.73;100.00;101348.50;4919989;29;20047;-77
2022/04/14 01:49:15;;;;;;;936.97;87.68;;;;;;;8.73;100.00;101351.19;4919254;29;20054;-77
2022/04/14 01:51:40;;;;;;;417.67;73.75;;;;;;;8.75;100.00;101349.19;4936502;29;20077;-77
2022/04/14 01:54:06;;;;;;;436.85;73.65;;;;;;;8.74;100.00;101351.03;4934476;29;20461;-77
2022/04/14 01:56:32;;;;;;;410.55;74.60;;;;;;;8.76;100.00;101351.69;4935446;29;20079;-77
2022/04/14 01:58:58;;;;;;;392.73;75.85;;;;;;;8.67;100.00;101328.56;4933611;29;20027;-77
2022/04/14 02:01:23;;;;;;;234.30;67.30;;;;;;;8.66;100.00;101325.06;4935683;29;20477;-77
2022/04/14 02:03:50;;;;;;;246.20;67.00;;;;;;;8.79;100.00;101335.22;4941175;29;20023;-77
2022/04/14 02:06:16;;;;;;;410.02;76.40;;;;;;;8.79;100.00;101340.59;4939281;29;20138;-77
2022/04/14 02:08:42;;;;;;;431.90;74.72;;;;;;;8.79;100.00;101345.97;4938146;29;20032;-77
2022/04/14 02:11:08;;;;;;;613.33;76.97;;;;;;;8.71;100.00;101332.59;4937990;29;20166;-77
2022/04/14 02:13:34;;;;;;;294.40;66.60;;;;;;;8.78;100.00;101346.16;4935039;29;20090;-77
2022/04/14 02:16:00;;;;;;;235.07;62.08;;;;;;;8.69;100.00;101326.56;4939227;29;20070;-77
2022/04/14 02:18:26;;;;;;;214.55;61.30;;;;;;;8.82;100.00;101350.16;4936267;29;20039;-77
2022/04/14 02:20:52;;;;;;;218.90;60.35;;;;;;;8.85;100.00;101356.00;4940278;29;20046;-77
2022/04/14 02:23:18;;;;;;;199.00;57.28;;;;;;;8.79;100.00;101321.81;4938497;29;20379;-77
2022/04/14 02:25:44;;;;;;;206.85;56.88;;;;;;;8.81;100.00;101318.97;4936559;29;20030;-77
2022/04/14 02:28:09;;;;;;;181.93;52.42;;;;;;;8.74;100.00;101305.41;4936950;29;20028;-77
2022/04/14 02:30:35;;;;;;;166.13;50.97;;;;;;;8.78;100.00;101322.00;4937334;29;20027;-77
2022/04/14 02:33:01;;;;;;;185.80;53.75;;;;;;;8.80;100.00;101317.28;4946912;29;20031;-77
2022/04/14 02:35:26;;;;;;;193.90;55.53;;;;;;;8.81;100.00;101322.50;4960720;28;20063;-78
2022/04/14 02:37:52;;;;;;;201.30;55.42;;;;;;;8.83;100.00;101319.63;4948058;28;20095;-77
2022/04/14 02:40:18;;;;;;;182.55;55.10;;;;;;;8.83;100.00;101316.94;4920469;29;20050;-77
2022/04/14 02:42:44;;;;;;;192.35;56.65;;;;;;;8.73;100.00;101298.38;4939823;29;20101;-78
2022/04/14 02:45:09;;;;;;;185.88;57.15;;;;;;;8.84;100.00;101324.81;4906082;29;20056;-77
2022/04/14 02:47:37;;;;;;;195.43;57.53;;;;;;;8.87;100.00;101329.84;4937837;29;20059;-77
2022/04/14 02:50:05;;;;;;;206.32;58.63;;;;;;;8.89;100.00;101329.66;4936146;29;20060;-77
2022/04/14 02:52:30;;;;;;;209.55;59.83;;;;;;;8.88;100.00;101352.16;4920123;29;20035;-77
2022/04/14 02:54:56;;;;;;;200.88;59.03;;;;;;;8.82;100.00;101347.47;4937880;29;20473;-77
2022/04/14 02:57:21;;;;;;;202.85;60.95;;;;;;;8.88;100.00;101358.34;4936535;29;20039;-77
2022/04/14 02:59:46;;;;;;;198.38;61.67;;;;;;;8.89;100.00;101359.19;4938589;29;20032;-77
2022/04/14 03:02:12;;;;;;;236.77;68.03;;;;;;;8.85;100.00;101356.00;4935422;29;20115;-77
2022/04/14 03:04:37;;;;;;;228.95;70.53;;;;;;;8.70;100.00;101330.91;4950911;29;20035;-78
2022/04/14 03:07:03;;;;;;;239.32;71.65;;;;;;;8.86;100.00;101359.53;4956034;28;20521;-77
2022/04/14 03:09:28;;;;;;;255.88;74.10;;;;;;;8.85;100.00;101352.50;4944462;28;20037;-77
2022/04/14 03:11:53;;;;;;;253.63;74.80;;;;;;;8.84;100.00;101348.13;4921490;29;20051;-77
2022/04/14 03:14:19;;;;;;;272.40;76.47;;;;;;;8.82;100.00;101345.63;4935364;29;20099;-77
2022/04/14 03:16:44;;;;;;;254.57;79.40;;;;;;;8.79;100.00;101335.22;4938737;29;20038;-77
2022/04/14 03:19:09;;;;;;;321.63;83.03;;;;;;;8.78;100.00;101333.56;4939258;29;20497;-77
2022/04/14 03:21:35;;;;;;;300.20;81.22;;;;;;;8.77;100.00;101339.91;4937068;28;20452;-77
2022/04/14 03:24:00;;;;;;;300.73;84.38;;;;;;;8.80;100.00;101349.47;4936406;29;20028;-77
2022/04/14 03:26:25;;;;;;;300.17;83.32;;;;;;;8.79;100.00;101340.59;4930421;29;20038;-77
2022/04/14 03:28:51;;;;;;;345.70;86.20;;;;;;;8.79;100.00;101345.13;4918307;29;20386;-77
2022/04/14 03:31:16;;;;;;;360.17;85.40;;;;;;;8.62;100.00;101323.72;4886130;29;20450;-76
2022/04/14 03:33:41;;;;;;;252.27;80.40;;;;;;;8.68;100.00;101339.13;4936198;29;20465;-77
2022/04/14 03:36:07;;;;;;;327.63;84.05;;;;;;;8.45;100.00;101301.50;4937128;29;20710;-77
2022/04/14 03:38:32;;;;;;;480.70;94.35;;;;;;;8.77;100.00;101352.50;4937341;29;20039;-77
2022/04/14 03:41:04;;;;;;;300.60;81.22;;;;;;;8.73;100.00;101343.97;4935713;29;20052;-77
2022/04/14 03:43:31;;;;;;;324.63;83.47;;;;;;;8.76;100.00;101340.13;4940243;29;20020;-77
2022/04/14 03:45:56;;;;;;;343.08;83.40;;;;;;;8.80;100.00;101344.94;4922654;29;20028;-77
2022/04/14 03:48:22;;;;;;;247.32;74.28;;;;;;;8.76;100.00;101338.25;4931026;29;20107;-76
2022/04/14 03:50:47;;;;;;;234.32;72.93;;;;;;;8.79;100.00;101342.44;4918460;29;20074;-77
2022/04/14 03:53:13;;;;;;;327.52;75.28;;;;;;;8.79;100.00;101337.09;4929338;29;20042;-77
2022/04/14 03:55:38;;;;;;;260.85;73.75;;;;;;;8.77;100.00;101339.91;4934805;29;20110;-77
2022/04/14 03:58:03;;;;;;;270.27;71.68;;;;;;;8.80;100.00;101331.53;4928762;29;20066;-77
2022/04/14 04:00:29;;;;;;;241.43;68.82;;;;;;;8.81;100.00;101329.72;4937565;29;20036;-77
2022/04/14 04:02:54;;;;;;;332.10;77.47;;;;;;;8.84;100.00;101342.75;4933232;29;20031;-77
2022/04/14 04:05:19;;;;;;;200.95;67.03;;;;;;;8.85;100.00;101341.75;4921072;29;20058;-77
2022/04/14 04:07:44;;;;;;;177.00;64.65;;;;;;;8.87;100.00;101345.09;4902118;29;20028;-77
2022/04/14 04:10:10;;;;;;;211.43;64.55;;;;;;;8.89;100.00;101345.75;4934545;29;20043;-77
2022/04/14 04:12:35;;;;;;;168.30;61.28;;;;;;;8.85;100.00;101336.38;4920370;29;20359;-77
2022/04/14 04:15:01;;;;;;;176.05;61.70;;;;;;;8.90;100.00;101334.00;4936787;29;20028;-77
2022/04/14 04:17:26;;;;;;;177.18;59.33;;;;;;;8.90;100.00;101342.06;4920003;29;20122;-77
2022/04/14 04:19:51;;;;;;;153.25;58.28;;;;;;;8.94;100.00;101340.72;4920405;29;20043;-77
2022/04/14 04:22:17;;;;;;;183.85;61.30;;;;;;;8.97;100.00;101339.50;4900671;29;20187;-77
2022/04/14 04:24:42;;;;;;;147.30;57.58;;;;;;;8.99;100.00;101326.75;4917229;29;20032;-77
2022/04/14 04:27:09;;;;;;;186.90;61.40;;;;;;;9.04;100.00;101335.09;4926217;29;20497;-77
2022/04/14 04:29:34;;;;;;;163.00;59.10;;;;;;;8.92;100.00;101314.03;4915968;29;20115;-77
2022/04/14 04:32:00;;;;;;;161.30;58.53;;;;;;;9.03;100.00;101330.75;4917227;29;20106;-77
2022/04/14 04:34:25;;;;;;;175.27;60.55;;;;;;;8.92;100.00;101316.72;4928083;29;20031;-77
2022/04/14 04:36:50;;;;;;;182.68;62.17;;;;;;;9.00;100.00;101329.25;4936016;29;20046;-77
2022/04/14 04:39:16;;;;;;;196.80;62.58;;;;;;;8.90;100.00;101315.22;4932854;29;20032;-78
2022/04/14 04:41:42;;;;;;;193.35;61.92;;;;;;;9.02;100.00;101337.97;4934450;29;20513;-78
2022/04/14 04:44:07;;;;;;;179.38;64.05;;;;;;;9.04;100.00;101343.16;4935496;29;20035;-78
2022/04/14 04:46:33;;;;;;;173.70;61.03;;;;;;;9.01;100.00;101348.91;4933813;29;20047;-77
2022/04/14 04:48:58;;;;;;;207.85;66.30;;;;;;;8.88;100.00;101328.00;4936416;29;20095;-79
2022/04/14 04:51:26;;;;;;;240.30;66.95;;;;;;;8.77;100.00;101307.72;4927390;29;20052;-79
2022/04/14 04:53:52;;;;;;;202.32;64.68;;;;;;;8.96;100.00;101344.03;4932481;29;20031;-78
2022/04/14 04:56:20;;;;;;;185.57;64.68;;;;;;;8.99;100.00;101340.19;4929326;29;20036;-77
2022/04/14 04:58:46;;;;;;;202.73;64.60;;;;;;;8.96;100.00;101329.78;4900848;29;20044;-79
2022/04/14 05:01:12;;;;;;;157.13;62.22;;;;;;;9.05;100.00;101342.16;4928127;29;20090;-78
2022/04/14 05:03:37;;;;;;;193.65;64.32;;;;;;;9.04;100.00;101337.78;4925942;29;20443;-79
2022/04/14 05:06:02;;;;;;;197.10;65.63;;;;;;;9.03;100.00;101338.81;4916411;29;20091;-80
2022/04/14 05:08:28;;;;;;;185.40;65.18;;;;;;;9.03;100.00;101339.63;4929181;29;20167;-79
2022/04/14 05:10:53;;;;;;;244.40;68.35;;;;;;;9.06;100.00;101333.09;4928411;29;20059;-79
2022/04/14 05:13:19;;;;;;;193.38;66.28;;;;;;;9.09;100.00;101338.09;4927206;29;20027;-79
2022/04/14 05:15:44;;;;;;;224.88;68.93;;;;;;;8.98;100.00;101320.56;4928154;29;20031;-80
2022/04/14 05:18:10;;;;;;;199.30;64.15;;;;;;;9.09;100.00;101341.63;4930281;29;20032;-79
2022/04/14 05:20:35;;;;;;;153.05;61.63;;;;;;;9.14;100.00;101338.44;4928428;29;20134;-79
2022/04/14 05:23:07;;;;;;;171.27;64.13;;;;;;;9.18;100.00;101335.19;4938834;29;20047;-83
2022/04/14 05:25:33;;;;;;;160.73;60.97;;;;;;;9.15;100.00;101332.03;4931658;29;20086;-81
2022/04/14 05:27:58;;;;;;;195.88;66.57;;;;;;;9.23;100.00;101344.56;4917889;29;20028;-80
2022/04/14 05:30:24;;;;;;;165.27;63.95;;;;;;;9.14;100.00;101328.53;4950125;29;20031;-79
2022/04/14 05:32:50;;;;;;;238.27;69.40;;;;;;;9.25;100.00;101351.44;4934857;29;20115;-81
2022/04/14 05:35:15;;;;;;;164.70;63.28;;;;;;;9.26;100.00;101358.47;4932610;29;20443;-80
2022/04/14 05:37:41;;;;;;;191.70;66.25;;;;;;;9.11;100.00;101336.09;4931514;29;20485;-80
2022/04/14 05:40:08;;;;;;;168.85;62.72;;;;;;;9.21;100.00;101360.88;4938186;29;20038;-81
2022/04/14 05:42:34;;;;;;;164.63;63.47;;;;;;;9.27;100.00;101354.81;4937039;29;20028;-80
2022/04/14 05:44:59;;;;;;;171.35;63.15;;;;;;;9.21;100.00;101339.38;4930392;29;20086;-80
2022/04/14 05:47:25;;;;;;;180.68;63.75;;;;;;;9.24;100.00;101335.50;4935303;29;20580;-79
2022/04/14 05:49:51;;;;;;;183.55;63.60;;;;;;;9.40;100.00;101356.88;4931264;29;20100;-80
2022/04/14 05:52:17;;;;;;;180.93;64.45;;;;;;;9.35;100.00;101337.78;4920112;29;20039;-80
2022/04/14 05:54:46;;;;;;;239.50;68.65;;;;;;;9.33;100.00;101340.63;4930891;29;20044;-80
2022/04/14 05:57:12;;;;;;;170.80;65.05;;;;;;;9.47;100.00;101362.38;4935290;29;20035;-80
2022/04/14 05:59:37;;;;;;;148.40;61.42;;;;;;;9.44;100.00;101362.72;4931479;29;20035;-80
2022/04/14 06:02:03;;;;;;;158.05;64.95;;;;;;;9.44;100.00;101360.03;4938046;29;20048;-82
2022/04/14 06:04:28;;;;;;;149.77;63.95;;;;;;;9.48;100.00;101358.69;4950539;28;20099;-80
2022/04/14 06:06:54;;;;;;;134.02;62.53;;;;;;;9.40;100.00;101338.94;4933071;29;20446;-79
2022/04/14 06:09:19;;;;;;;126.18;60.63;;;;;;;9.55;100.00;101354.28;4934308;29;20474;-80
2022/04/14 06:11:44;;;;;;;193.15;69.75;;;;;;;9.46;100.00;101340.03;4932795;28;20023;-81
2022/04/14 06:14:09;;;;;;;179.63;69.85;;;;;;;9.56;100.00;101355.94;4933750;29;20098;-80
2022/04/14 06:16:35;;;;;;;150.98;66.60;;;;;;;9.58;100.00;101362.81;4917715;29;20509;-79
2022/04/14 06:19:00;;;;;;;152.40;66.15;;;;;;;9.48;100.00;101342.56;4942848;29;20461;-80
2022/04/14 06:21:26;;;;;;;136.25;64.97;;;;;;;9.58;100.00;101359.28;4938501;29;20024;-80
2022/04/14 06:23:51;;;;;;;125.90;62.05;;;;;;;9.60;100.00;101368.00;4916022;29;20052;-80
2022/04/14 06:26:16;;;;;;;125.53;61.92;;;;;;;9.54;100.00;101347.25;4941744;29;20028;-81
2022/04/14 06:28:42;;;;;;;121.28;61.08;;;;;;;9.64;100.00;101362.09;4934441;28;20451;-79
2022/04/14 06:31:08;;;;;;;121.82;60.70;;;;;;;9.61;100.00;101353.56;4917250;29;20036;-79
2022/04/14 06:33:33;;;;;;;100.00;55.88;;;;;;;9.69;100.00;101356.16;4938064;29;20008;-82
2022/04/14 06:35:59;;;;;;;120.60;60.85;;;;;;;9.63;100.00;101338.06;4954817;29;20035;-82
2022/04/14 06:38:26;;;;;;;116.07;59.40;;;;;;;9.77;100.00;101360.66;4940992;29;20064;-80
2022/04/14 06:40:52;;;;;;;113.43;58.85;;;;;;;9.70;100.00;101355.19;4950590;29;20036;-80
2022/04/14 06:43:17;;;;;;;111.57;59.50;;;;;;;9.75;100.00;101366.22;4950578;29;20888;-82
2022/04/14 06:45:42;;;;;;;112.70;57.88;;;;;;;9.73;100.00;101373.59;4941579;29;20035;-81
2022/04/14 06:48:09;;;;;;;127.13;59.53;;;;;;;9.75;100.00;101370.75;4940455;29;20065;-81
2022/04/14 06:50:34;;;;;;;112.60;58.20;;;;;;;9.76;100.00;101367.88;4941066;29;20131;-79
2022/04/14 06:53:00;;;;;;;113.43;56.85;;;;;;;9.50;100.00;101341.34;4935032;29;20123;-81
2022/04/14 06:55:25;;;;;;;110.28;56.35;;;;;;;9.72;100.00;101371.94;4918902;29;20035;-81
2022/04/14 06:57:51;;;;;;;139.15;59.65;;;;;;;9.61;100.00;101356.25;4952616;28;20458;-79
2022/04/14 07:00:16;;;;;;;134.52;58.90;;;;;;;9.51;100.00;101350.28;4919823;29;20028;-80
2022/04/14 07:02:52;;;;;;;127.90;58.38;;;;;;;9.70;100.00;101374.00;4933086;29;20358;-80
2022/04/14 07:05:18;;;;;;;117.40;56.15;;;;;;;9.60;100.00;101341.97;4934244;29;20038;-80
2022/04/14 07:07:45;;;;;;;105.05;55.63;;;;;;;9.78;100.00;101359.63;4930891;29;20024;-81
2022/04/14 07:10:12;;;;;;;113.10;54.55;;;;;;;9.80;100.00;101365.66;4938244;29;20024;-79
2022/04/14 07:12:39;;;;;;;102.60;52.40;;;;;;;9.81;100.00;101352.06;4921896;29;20035;-80
2022/04/14 07:15:05;;;;;;;93.60;51.50;;;;;;;9.91;100.00;101365.25;4929451;29;20030;-79
2022/04/14 07:17:30;;;;;;;101.90;50.75;;;;;;;9.91;100.00;101362.56;4945677;29;20084;-79
2022/04/14 07:19:57;;;;;;;97.60;51.55;;;;;;;9.85;100.00;101345.28;4938975;29;20044;-79
2022/04/14 07:22:23;;;;;;;84.18;47.90;;;;;;;9.98;100.00;101351.91;4934654;29;20036;-79
2022/04/14 07:24:49;;;;;;;89.07;46.45;;;;;;;10.05;100.00;101355.53;4933632;29;20136;-79
2022/04/14 07:27:20;;;;;;;79.13;45.83;;;;;;;10.02;100.00;101337.09;4936511;29;20039;-78
2022/04/14 07:29:46;;;;;;;80.55;44.50;;;;;;;10.20;100.00;101352.88;4941710;29;20024;-79
2022/04/14 07:32:12;;;;;;;74.85;43.35;;;;;;;10.07;100.00;101321.25;4948238;29;20035;-77
2022/04/14 07:34:38;;;;;;;73.72;43.55;;;;;;;10.21;100.00;101341.94;4933106;29;20104;-79
2022/04/14 07:37:03;;;;;;;74.15;43.55;;;;;;;10.37;100.00;101358.97;4934337;29;20047;-79
2022/04/14 07:39:29;;;;;;;77.47;44.42;;;;;;;10.37;100.00;101364.34;4935865;29;20063;-79
2022/04/14 07:41:54;;;;;;;76.85;44.38;;;;;;;10.35;100.00;101368.03;4920771;29;20035;-78
2022/04/14 07:44:20;;;;;;;71.43;42.95;;;;;;;10.05;100.00;101312.53;4935308;29;20091;-79
2022/04/14 07:46:45;;;;;;;72.50;43.67;;;;;;;10.39;100.00;101365.00;4933301;29;20066;-78
2022/04/14 07:49:10;;;;;;;67.40;42.47;;;;;;;10.41;100.00;101366.47;4932305;29;20036;-78
2022/04/14 07:51:36;;;;;;;75.35;45.15;;;;;;;10.46;100.00;101369.47;4925636;29;20052;-79
2022/04/14 07:54:01;;;;;;;65.18;42.05;;;;;;;10.56;100.00;101370.03;4930504;29;20358;-78
2022/04/14 07:56:26;;;;;;;71.65;44.00;;;;;;;10.69;100.00;101358.59;4928870;28;20050;-79
2022/04/14 07:58:52;;;;;;;67.90;43.38;;;;;;;10.78;100.00;101351.25;4926683;29;20066;-78
2022/04/14 08:01:20;;;;;;;62.28;42.17;;;;;;;10.90;100.00;101340.88;4928529;29;20028;-77
2022/04/14 08:03:47;;;;;;;59.33;41.28;;;;;;;11.11;100.00;101340.91;4932813;29;20035;-79
2022/04/14 08:06:15;;;;;;;61.92;41.58;;;;;;;11.38;100.00;101362.75;4929208;29;20032;-78
2022/04/14 08:08:41;;;;;;;51.45;38.28;;;;;;;11.12;100.00;101310.25;4912852;29;20039;-78
2022/04/14 08:11:08;;;;;;;55.83;39.47;;;;;;;11.39;100.00;101342.84;4927959;29;20032;-78
2022/04/14 08:13:37;;;;;;;46.90;36.40;;;;;;;11.53;100.00;101368.94;4927843;29;20497;-78
2022/04/14 08:16:06;;;;;;;55.80;39.83;;;;;;;11.64;100.00;101359.50;4914133;29;20194;-78
2022/04/14 08:18:40;;;;;;;53.83;38.85;;;;;;;11.58;100.00;101360.25;4926948;29;20370;-79
2022/04/14 08:21:06;;;;;;;49.15;37.33;;;;;;;11.59;100.00;101362.78;4913800;29;20071;-79
2022/04/14 08:23:32;;;;;;;48.38;37.30;;;;;;;11.61;100.00;101358.00;4937834;29;20055;-78
2022/04/14 08:25:59;;;;;;;48.83;37.78;;;;;;;11.55;100.00;101355.25;4930597;29;20023;-79
2022/04/14 08:28:25;;;;;;;49.90;38.20;;;;;;;11.63;100.00;101365.91;4927739;29;20442;-78
2022/04/14 08:30:52;;;;;;;49.20;38.45;;;;;;;11.60;100.00;101374.41;4929476;29;20050;-79
2022/04/14 08:33:20;;;;;;;51.40;38.58;;;;;;;11.43;100.00;101349.56;4927977;29;20453;-78
2022/04/14 08:35:46;;;;;;;48.75;37.55;;;;;;;11.43;100.00;101354.94;4929145;29;20028;-78
2022/04/14 08:38:11;;;;;;;52.22;39.70;;;;;;;11.58;100.00;101371.88;4931355;29;20062;-78
2022/04/14 08:40:39;;;;;;;53.33;39.60;;;;;;;11.45;100.00;101361.78;4931796;29;20027;-78
2022/04/14 08:43:06;;;;;;;58.83;41.78;;;;;;;11.38;100.00;101363.56;4927753;29;20035;-78
2022/04/14 08:45:34;;;;;;;52.42;39.65;;;;;;;11.18;100.00;101355.28;4945092;28;20043;-78
2022/04/14 08:48:02;;;;;;;52.63;40.13;;;;;;;11.31;100.00;101380.72;4929109;29;20015;-78
2022/04/14 08:50:28;;;;;;;53.17;39.35;;;;;;;11.26;100.00;101376.72;4928397;29;20079;-78
2022/04/14 08:52:54;;;;;;;55.85;40.97;;;;;;;11.16;100.00;101378.88;4927324;29;20031;-77
2022/04/14 08:55:20;;;;;;;56.83;41.17;;;;;;;11.18;100.00;101374.13;4927111;29;20359;-79
2022/04/14 08:57:46;;;;;;;56.60;40.15;;;;;;;11.14;100.00;101378.22;4927444;29;20438;-79
2022/04/14 09:00:16;;;;;;;50.03;38.47;;;;;;;11.07;100.00;101371.94;4930206;29;20887;-79
2022/04/14 09:02:45;;;;;;;48.90;37.40;;;;;;;11.00;100.00;101365.63;4927788;29;20430;-79
2022/04/14 09:05:14;;;;;;;48.92;36.80;;;;;;;11.07;100.00;101389.97;4929624;29;20035;-79
2022/04/14 09:07:40;;;;;;;45.85;35.28;;;;;;;11.02;100.00;101385.13;4927356;29;20119;-79
2022/04/14 09:10:07;;;;;;;44.03;34.05;;;;;;;10.95;100.00;101384.19;4928585;29;20020;-78
2022/04/14 09:12:35;;;;;;;45.13;34.45;;;;;;;10.90;100.00;101383.94;4929395;29;20038;-78
2022/04/14 09:15:00;;;;;;;40.90;32.70;;;;;;;10.92;100.00;101390.78;4928598;29;20059;-79
2022/04/14 09:17:27;;;;;;;43.08;33.00;;;;;;;10.88;100.00;101389.50;4928905;29;20051;-78
2022/04/14 09:19:52;;;;;;;36.97;31.25;;;;;;;10.89;100.00;101384.94;4912060;29;20475;-78
2022/04/14 09:22:18;;;;;;;40.83;32.63;;;;;;;10.92;100.00;101387.25;4930266;29;20031;-78
2022/04/14 09:25:03;;;;;;;36.40;30.45;;;;;;;10.92;100.00;101379.19;4911829;29;20087;-77
2022/04/14 09:27:47;;;;;;;;;;;;;;;11.01;100.00;101380.75;4929920;29;20475;-78
2022/04/14 09:30:17;;;;;;;41.53;31.23;;;;;;;10.97;100.00;101392.94;4933729;29;19933;-78
2022/04/14 09:32:42;;;;;;;42.17;32.55;;;;;;;10.96;100.00;101392.09;4919619;29;20028;-78
2022/04/14 09:35:23;;;;;;;38.13;29.85;;;;;;;10.85;100.00;101371.03;4929580;29;20035;-78
2022/04/14 09:38:04;;;;;;;33.90;28.55;;;;;;;10.94;100.00;101379.84;4929825;29;20126;-78
2022/04/14 09:40:31;;;;;;;33.17;27.52;;;;;;;11.03;100.00;101389.50;4931814;29;20030;-77
2022/04/14 09:42:56;;;;;;;33.55;28.67;;;;;;;10.98;100.00;101383.81;4931960;29;20017;-78
2022/04/14 09:45:26;;;;;;;31.15;25.98;;;;;;;11.08;100.00;101389.75;4940308;29;20035;-78
2022/04/14 09:47:53;;;;;;;35.13;29.67;;;;;;;11.12;100.00;101382.97;4934556;29;20678;-78
2022/04/14 09:50:30;;;;;;;36.88;29.52;;;;;;;11.11;100.00;101389.38;4935579;29;20189;-80
2022/04/14 09:53:07;;;;;;;33.15;28.08;;;;;;;11.13;100.00;101387.34;4929471;29;20024;-78
2022/04/14 09:55:34;;;;;;;34.35;28.38;;;;;;;11.23;100.00;101385.19;4932961;29;20027;-77
2022/04/14 09:58:19;;;;;;;26.75;23.42;;;;;;;11.28;100.00;101380.06;4932789;29;20028;-77
2022/04/14 10:00:52;;;;;;;25.60;22.73;;;;;;;11.31;100.00;101392.31;4929019;29;20103;-78
2022/04/14 10:03:25;;;;;;;25.75;22.90;;;;;;;11.23;100.00;101366.31;4926978;29;20320;-77
2022/04/14 10:05:52;;;;;;;28.00;24.15;;;;;;;11.32;100.00;101385.88;4929963;29;20130;-78
2022/04/14 10:08:19;;;;;;;25.30;22.25;;;;;;;11.28;100.00;101390.00;4926182;29;20024;-77
2022/04/14 10:10:48;;;;;;;24.58;21.98;;;;;;;11.24;100.00;101381.47;4926984;29;20026;-77
2022/04/14 10:13:16;;;;;;;26.85;23.25;;;;;;;11.24;100.00;101369.84;4910804;29;20028;-78
2022/04/14 10:15:43;;;;;;;25.77;23.02;;;;;;;11.37;100.00;101385.34;4926705;29;20028;-78
2022/04/14 10:18:12;;;;;;;23.25;20.80;;;;;;;11.41;100.00;101384.75;4929934;28;20043;-77
2022/04/14 10:20:38;;;;;;;22.00;19.70;;;;;;;11.46;100.00;101385.03;4929139;29;20106;-80
2022/04/14 10:23:07;;;;;;;23.20;20.80;;;;;;;11.45;100.00;101371.72;4934793;29;20124;-79
2022/04/14 10:25:36;;;;;;;22.80;20.42;;;;;;;11.56;100.00;101387.41;4933084;29;20031;-77
2022/04/14 10:28:02;;;;;;;22.08;19.77;;;;;;;11.58;100.00;101377.25;4930958;29;20031;-79
2022/04/14 10:30:28;;;;;;;25.42;20.85;;;;;;;11.61;100.00;101384.13;4930604;29;20024;-78
2022/04/14 10:32:57;;;;;;;22.60;20.20;;;;;;;11.66;100.00;101390.63;4937070;29;20028;-79
2022/04/14 10:35:24;;;;;;;23.65;21.10;;;;;;;11.65;100.00;101388.94;4937202;29;20470;-78
2022/04/14 10:38:03;;;;;;;21.13;18.83;;;;;;;11.55;100.00;101385.72;4936773;29;20046;-78
2022/04/14 10:40:31;;;;;;;19.33;17.33;;;;;;;11.60;100.00;101379.78;4935309;29;20072;-78
2022/04/14 10:42:58;;;;;;;19.48;17.42;;;;;;;11.55;100.00;101384.91;4937185;29;20019;-79
2022/04/14 10:45:24;;;;;;;18.83;16.95;;;;;;;11.63;100.00;101391.00;4934115;29;20430;-78
2022/04/14 10:47:49;;;;;;;19.15;17.23;;;;;;;11.70;100.00;101399.16;4933333;29;20042;-78
2022/04/14 10:50:34;;;;;;;20.17;18.10;;;;;;;11.70;100.00;101397.31;4934078;29;20569;-80
2022/04/14 10:53:04;;;;;;;22.30;20.02;;;;;;;11.77;100.00;101394.66;4932352;29;20361;-78
2022/04/14 10:55:40;;;;;;;23.10;20.65;;;;;;;11.81;100.00;101400.50;4941625;29;20031;-79
2022/04/14 10:58:07;;;;;;;24.83;22.33;;;;;;;11.74;100.00;101392.34;4946055;29;20027;-80
2022/04/14 11:00:34;;;;;;;23.25;20.98;;;;;;;11.66;100.00;101393.31;4935281;29;20036;-79